createdAt,value
2023-11-07T00:01:35.926Z,6.40
2023-11-07T00:04:05.985Z,6.40
2023-11-07T00:06:34.532Z,6.40
2023-11-07T00:09:03.206Z,6.40
2023-11-07T00:11:31.654Z,6.40
2023-11-07T00:13:59.781Z,6.30
2023-11-07T00:16:28.958Z,6.30
2023-11-07T00:18:57.707Z,6.30
2023-11-07T00:21:27.417Z,6.40
2023-11-07T00:23:55.927Z,6.40
2023-11-07T00:26:24.110Z,6.40
2023-11-07T00:28:53.126Z,6.50
2023-11-07T00:31:21.338Z,6.40
2023-11-07T00:33:50.133Z,6.40
2023-11-07T00:36:19.208Z,6.40
2023-11-07T00:38:48.828Z,6.40
2023-11-07T00:41:17.093Z,6.40
2023-11-07T00:43:45.318Z,6.30
2023-11-07T00:46:13.505Z,6.30
2023-11-07T00:48:41.850Z,6.30
2023-11-07T00:51:10.243Z,6.30
2023-11-07T00:53:38.655Z,6.20
2023-11-07T00:56:10.128Z,6.20
2023-11-07T00:58:38.435Z,6.20
2023-11-07T01:01:07.968Z,6.20
2023-11-07T01:03:36.436Z,6.20
2023-11-07T01:06:06.478Z,6.10
2023-11-07T01:08:35.223Z,6.10
2023-11-07T01:11:04.313Z,6.20
2023-11-07T01:13:34.566Z,6.20
2023-11-07T01:16:03.836Z,6.20
2023-11-07T01:18:32.714Z,6.20
2023-11-07T01:21:01.090Z,6.20
2023-11-07T01:23:29.513Z,6.20
2023-11-07T01:25:57.655Z,6.10
2023-11-07T01:28:26.604Z,6.10
2023-11-07T01:30:56.240Z,6.10
2023-11-07T01:33:24.506Z,6.00
2023-11-07T01:35:52.797Z,6.00
2023-11-07T01:38:21.663Z,6.00
2023-11-07T01:40:49.949Z,5.90
2023-11-07T01:43:18.447Z,5.90
2023-11-07T01:45:46.665Z,5.80
2023-11-07T01:48:25.968Z,5.80
2023-11-07T01:50:54.708Z,5.80
2023-11-07T01:53:23.620Z,5.70
2023-11-07T01:55:53.012Z,5.70
2023-11-07T01:58:23.227Z,5.70
2023-11-07T02:00:54.814Z,5.70
2023-11-07T02:03:26.639Z,5.70
2023-11-07T02:05:55.059Z,5.70
2023-11-07T02:08:25.011Z,5.70
2023-11-07T02:10:53.798Z,5.70
2023-11-07T02:13:21.958Z,5.70
2023-11-07T02:15:50.229Z,5.70
2023-11-07T02:18:18.537Z,5.70
2023-11-07T02:20:49.301Z,5.70
2023-11-07T02:23:36.585Z,5.60
2023-11-07T02:26:05.561Z,5.60
2023-11-07T02:28:34.306Z,5.60
2023-11-07T02:31:02.488Z,5.60
2023-11-07T02:33:31.151Z,5.60
2023-11-07T02:36:00.095Z,5.60
2023-11-07T02:38:29.995Z,5.60
2023-11-07T02:40:59.867Z,5.60
2023-11-07T02:43:28.090Z,5.60
2023-11-07T02:45:56.263Z,5.60
2023-11-07T02:48:24.510Z,5.60
2023-11-07T02:50:52.769Z,5.60
2023-11-07T02:53:20.934Z,5.60
2023-11-07T02:55:49.195Z,5.70
2023-11-07T02:58:18.769Z,5.70
2023-11-07T03:00:46.972Z,5.70
2023-11-07T03:03:16.584Z,5.70
2023-11-07T03:05:45.113Z,5.70
2023-11-07T03:08:14.132Z,5.70
2023-11-07T03:10:44.184Z,5.70
2023-11-07T03:13:13.594Z,5.70
2023-11-07T03:15:45.172Z,5.70
2023-11-07T03:18:13.853Z,5.60
2023-11-07T03:20:43.313Z,5.60
2023-11-07T03:23:11.677Z,5.60
2023-11-07T03:25:40.101Z,5.60
2023-11-07T03:28:10.315Z,5.60
2023-11-07T03:30:38.572Z,5.60
2023-11-07T03:33:08.309Z,5.60
2023-11-07T03:35:37.067Z,5.60
2023-11-07T03:38:05.449Z,5.60
2023-11-07T03:40:33.869Z,5.60
2023-11-07T03:43:02.080Z,5.60
2023-11-07T03:45:30.976Z,5.60
2023-11-07T03:47:59.243Z,5.70
2023-11-07T03:50:29.624Z,5.70
2023-11-07T03:52:57.917Z,5.70
2023-11-07T03:55:26.106Z,5.60
2023-11-07T03:57:54.374Z,5.60
2023-11-07T04:00:23.627Z,5.60
2023-11-07T04:02:52.324Z,5.60
2023-11-07T04:05:21.553Z,5.70
2023-11-07T04:07:51.370Z,5.70
2023-11-07T04:10:19.700Z,5.70
2023-11-07T04:12:48.043Z,5.70
2023-11-07T04:15:16.415Z,5.70
2023-11-07T04:17:48.209Z,5.70
2023-11-07T04:20:17.536Z,5.70
2023-11-07T04:22:48.128Z,5.70
2023-11-07T04:25:20.387Z,5.70
2023-11-07T04:27:48.832Z,5.70
2023-11-07T04:30:18.635Z,5.70
2023-11-07T04:32:47.209Z,5.70
2023-11-07T04:35:16.427Z,5.70
2023-11-07T04:37:44.646Z,5.70
2023-11-07T04:40:14.098Z,5.60
2023-11-07T04:42:43.665Z,5.60
2023-11-07T04:45:13.041Z,5.60
2023-11-07T04:47:41.650Z,5.60
2023-11-07T04:50:13.422Z,5.60
2023-11-07T04:52:41.657Z,5.60
2023-11-07T04:55:10.531Z,5.60
2023-11-07T04:57:38.695Z,5.60
2023-11-07T05:00:11.930Z,5.60
2023-11-07T05:02:41.014Z,5.60
2023-11-07T05:05:10.209Z,5.60
2023-11-07T05:07:38.537Z,5.70
2023-11-07T05:10:10.883Z,5.70
2023-11-07T05:12:39.436Z,5.70
2023-11-07T05:15:11.098Z,5.80
2023-11-07T05:17:39.538Z,5.80
2023-11-07T05:20:11.612Z,5.80
2023-11-07T05:22:39.925Z,5.80
2023-11-07T05:25:09.799Z,5.80
2023-11-07T05:27:38.030Z,5.70
2023-11-07T05:30:09.567Z,5.70
2023-11-07T05:32:37.936Z,5.70
2023-11-07T05:35:07.739Z,5.70
2023-11-07T05:37:36.069Z,5.70
2023-11-07T05:40:06.004Z,5.60
2023-11-07T05:42:34.549Z,5.60
2023-11-07T05:45:04.278Z,5.60
2023-11-07T05:47:34.083Z,5.60
2023-11-07T05:50:02.261Z,5.60
2023-11-07T05:52:30.461Z,5.60
2023-11-07T05:54:58.676Z,5.60
2023-11-07T05:57:26.966Z,5.50
2023-11-07T05:59:55.258Z,5.60
2023-11-07T06:02:25.763Z,5.60
2023-11-07T06:04:56.832Z,5.60
2023-11-07T06:07:25.390Z,5.60
2023-11-07T06:09:53.783Z,5.70
2023-11-07T06:12:21.978Z,5.80
2023-11-07T06:14:50.281Z,5.80
2023-11-07T06:17:18.783Z,5.90
2023-11-07T06:19:48.337Z,6.00
2023-11-07T06:22:18.021Z,6.00
2023-11-07T06:24:47.220Z,6.00
2023-11-07T06:27:15.530Z,6.00
2023-11-07T06:29:44.982Z,6.00
2023-11-07T06:32:14.679Z,6.00
2023-11-07T06:34:43.275Z,6.00
2023-11-07T06:37:12.034Z,6.00
2023-11-07T06:39:41.558Z,6.10
2023-11-07T06:42:09.858Z,6.10
2023-11-07T06:44:38.144Z,6.10
2023-11-07T06:47:06.669Z,6.10
2023-11-07T06:49:35.270Z,6.00
2023-11-07T06:52:03.514Z,6.00
2023-11-07T06:54:32.932Z,6.00
2023-11-07T06:57:02.538Z,6.00
2023-11-07T06:59:32.810Z,6.00
2023-11-07T07:02:01.409Z,6.00
2023-11-07T07:04:31.483Z,6.00
2023-11-07T07:06:59.748Z,6.00
2023-11-07T07:09:28.198Z,6.00
2023-11-07T07:11:56.755Z,6.00
2023-11-07T07:14:26.271Z,6.00
2023-11-07T07:16:54.493Z,6.00
2023-11-07T07:19:25.418Z,6.10
2023-11-07T07:21:55.220Z,6.20
2023-11-07T07:24:28.547Z,6.20
2023-11-07T07:26:59.985Z,6.30
2023-11-07T07:29:30.321Z,6.40
2023-11-07T07:32:00.643Z,6.50
2023-11-07T07:34:29.358Z,6.60
2023-11-07T07:36:57.766Z,6.60
2023-11-07T07:39:31.546Z,6.70
2023-11-07T07:42:10.040Z,6.80
2023-11-07T07:44:40.843Z,6.90
2023-11-07T07:47:09.643Z,7.00
2023-11-07T07:49:38.459Z,7.00
2023-11-07T07:52:11.213Z,7.10
2023-11-07T07:57:12.192Z,7.30
2023-11-07T07:59:43.491Z,7.40
2023-11-07T08:02:12.410Z,7.40
2023-11-07T08:04:40.927Z,7.50
2023-11-07T08:07:09.305Z,7.60
2023-11-07T08:09:42.033Z,7.70
2023-11-07T08:12:11.337Z,7.80
2023-11-07T08:14:42.187Z,7.90
2023-11-07T08:17:11.142Z,8.00
2023-11-07T08:19:39.380Z,8.10
2023-11-07T08:22:09.136Z,8.20
2023-11-07T08:24:37.879Z,8.30
2023-11-07T08:27:06.376Z,8.50
2023-11-07T08:29:34.774Z,8.60
2023-11-07T08:32:05.444Z,8.80
2023-11-07T08:34:34.794Z,8.90
2023-11-07T08:37:09.201Z,9.20
2023-11-07T08:39:41.914Z,9.40
2023-11-07T08:42:11.703Z,9.60
2023-11-07T08:44:41.360Z,9.80
2023-11-07T08:47:11.286Z,10.00
2023-11-07T08:49:39.842Z,10.20
2023-11-07T08:52:08.081Z,10.40
2023-11-07T08:54:37.824Z,10.50
2023-11-07T08:57:06.972Z,10.60
2023-11-07T08:59:37.528Z,10.70
2023-11-07T09:02:06.408Z,10.80
2023-11-07T09:04:36.025Z,10.90
2023-11-07T09:07:04.816Z,11.00
2023-11-07T09:09:33.065Z,11.00
2023-11-07T09:12:01.387Z,11.00
2023-11-07T09:14:30.470Z,11.10
2023-11-07T09:16:58.713Z,11.10
2023-11-07T09:19:27.409Z,11.20
2023-11-07T09:21:56.932Z,11.20
2023-11-07T09:24:25.349Z,11.20
2023-11-07T09:26:54.380Z,11.20
2023-11-07T09:29:22.912Z,11.20
2023-11-07T09:31:53.304Z,11.20
2023-11-07T09:34:23.014Z,11.20
2023-11-07T09:36:51.288Z,11.20
2023-11-07T09:39:22.706Z,11.40
2023-11-07T09:41:51.006Z,11.60
2023-11-07T09:44:19.992Z,11.80
2023-11-07T09:46:50.535Z,12.20
2023-11-07T09:49:20.901Z,12.40
2023-11-07T09:51:53.017Z,12.70
2023-11-07T09:54:28.668Z,12.90
2023-11-07T09:57:00.196Z,12.90
2023-11-07T09:59:37.153Z,13.10
2023-11-07T10:02:10.675Z,13.30
2023-11-07T10:04:43.569Z,13.50
2023-11-07T10:07:12.097Z,13.70
2023-11-07T10:09:41.720Z,13.70
2023-11-07T10:12:17.311Z,13.80
2023-11-07T10:14:46.967Z,13.90
2023-11-07T10:17:22.988Z,14.10
2023-11-07T10:20:07.275Z,14.40
2023-11-07T10:22:45.586Z,14.60
2023-11-07T10:25:32.982Z,14.60
2023-11-07T10:28:03.754Z,14.60
2023-11-07T10:30:41.292Z,14.60
2023-11-07T10:33:10.406Z,14.60
2023-11-07T10:35:55.198Z,14.50
2023-11-07T10:38:24.309Z,14.50
2023-11-07T10:40:54.604Z,14.40
2023-11-07T10:43:36.423Z,14.30
2023-11-07T10:46:06.747Z,14.30
2023-11-07T10:48:39.144Z,14.40
2023-11-07T10:51:10.830Z,14.40
2023-11-07T10:53:43.809Z,14.40
2023-11-07T10:56:16.609Z,14.40
2023-11-07T10:58:54.110Z,14.40
2023-11-07T11:01:22.434Z,14.40
2023-11-07T11:03:52.220Z,14.40
2023-11-07T11:06:25.264Z,14.30
2023-11-07T11:08:59.021Z,14.30
2023-11-07T11:11:32.389Z,14.20
2023-11-07T11:14:01.733Z,14.00
2023-11-07T11:16:32.809Z,14.00
2023-11-07T11:19:17.698Z,14.00
2023-11-07T11:21:57.804Z,13.90
2023-11-07T11:24:45.168Z,13.90
2023-11-07T11:27:23.910Z,13.80
2023-11-07T11:29:52.150Z,13.70
2023-11-07T11:32:28.991Z,13.70
2023-11-07T11:35:31.110Z,13.80
2023-11-07T11:38:14.438Z,13.80
2023-11-07T11:40:54.336Z,13.80
2023-11-07T11:43:26.878Z,13.80
2023-11-07T11:45:59.730Z,13.70
2023-11-07T11:49:08.600Z,13.60
2023-11-07T11:51:39.667Z,13.60
2023-11-07T11:54:09.839Z,13.50
2023-11-07T11:57:07.290Z,13.40
2023-11-07T11:59:56.291Z,13.30
2023-11-07T12:02:38.160Z,13.30
2023-11-07T12:05:17.138Z,13.20
2023-11-07T12:07:46.838Z,13.10
2023-11-07T12:10:22.074Z,13.10
2023-11-07T12:13:02.442Z,13.10
2023-11-07T12:15:34.326Z,13.10
2023-11-07T12:18:04.380Z,13.30
2023-11-07T12:20:42.078Z,13.50
2023-11-07T12:23:16.639Z,13.70
2023-11-07T12:25:51.672Z,14.30
2023-11-07T12:28:21.788Z,14.80
2023-11-07T12:30:56.985Z,15.20
2023-11-07T12:33:25.310Z,15.20
2023-11-07T12:35:58.714Z,15.10
2023-11-07T12:38:27.096Z,14.90
2023-11-07T12:40:55.725Z,14.60
2023-11-07T12:43:39.336Z,14.40
2023-11-07T12:46:11.768Z,14.20
2023-11-07T12:48:40.160Z,14.00
2023-11-07T12:51:09.726Z,13.90
2023-11-07T12:53:52.444Z,13.80
2023-11-07T12:56:22.445Z,13.60
2023-11-07T12:58:52.161Z,13.50
2023-11-07T13:01:27.291Z,13.40
2023-11-07T13:03:55.890Z,13.30
2023-11-07T13:06:24.275Z,13.30
2023-11-07T13:08:52.556Z,13.20
2023-11-07T13:11:24.985Z,13.10
2023-11-07T13:13:54.562Z,13.00
2023-11-07T13:16:23.613Z,13.00
2023-11-07T13:18:58.046Z,12.90
2023-11-07T13:21:29.099Z,13.00
2023-11-07T13:23:57.431Z,13.00
2023-11-07T13:26:25.725Z,13.00
2023-11-07T13:28:58.234Z,13.00
2023-11-07T13:31:26.535Z,13.10
2023-11-07T13:33:54.907Z,13.10
2023-11-07T13:36:23.378Z,13.30
2023-11-07T13:38:51.599Z,13.40
2023-11-07T13:41:20.130Z,13.50
2023-11-07T13:43:48.463Z,13.50
2023-11-07T13:46:19.453Z,13.50
2023-11-07T13:48:51.268Z,13.50
2023-11-07T13:51:21.398Z,13.40
2023-11-07T13:53:51.804Z,13.30
2023-11-07T13:56:20.224Z,13.20
2023-11-07T13:58:49.220Z,13.00
2023-11-07T14:01:19.057Z,12.90
2023-11-07T14:03:47.566Z,12.70
2023-11-07T14:06:17.550Z,12.60
2023-11-07T14:08:49.350Z,12.40
2023-11-07T14:11:18.303Z,12.20
2023-11-07T14:13:48.881Z,11.90
2023-11-07T14:16:19.077Z,11.70
2023-11-07T14:18:49.961Z,11.40
2023-11-07T14:21:18.511Z,11.30
2023-11-07T14:23:47.130Z,11.10
2023-11-07T14:26:16.112Z,11.00
2023-11-07T14:28:55.213Z,10.80
2023-11-07T14:31:31.630Z,10.80
2023-11-07T14:34:00.435Z,10.70
2023-11-07T14:36:29.493Z,10.70
2023-11-07T14:39:04.865Z,10.60
2023-11-07T14:41:37.270Z,10.70
2023-11-07T14:44:05.850Z,10.70
2023-11-07T14:46:36.702Z,10.70
2023-11-07T14:49:06.406Z,10.70
2023-11-07T14:51:35.794Z,10.70
2023-11-07T14:54:05.739Z,10.70
2023-11-07T14:56:34.037Z,10.70
2023-11-07T14:59:02.296Z,10.70
2023-11-07T15:01:30.507Z,10.80
2023-11-07T15:04:00.526Z,10.80
2023-11-07T15:06:29.043Z,10.80
2023-11-07T15:08:57.378Z,10.80
2023-11-07T15:11:26.902Z,10.80
2023-11-07T15:13:57.032Z,10.70
2023-11-07T15:16:25.336Z,10.70
2023-11-07T15:18:53.868Z,10.60
2023-11-07T15:21:23.490Z,10.50
2023-11-07T15:23:52.011Z,10.40
2023-11-07T15:26:20.404Z,10.30
2023-11-07T15:28:49.531Z,10.20
2023-11-07T15:31:17.867Z,10.20
2023-11-07T15:33:46.397Z,10.10
2023-11-07T15:36:14.838Z,10.00
2023-11-07T15:38:45.678Z,10.00
2023-11-07T15:41:13.871Z,9.90
2023-11-07T15:43:42.735Z,9.90
2023-11-07T15:46:12.457Z,9.80
2023-11-07T15:48:40.899Z,9.80
2023-11-07T15:51:09.364Z,9.70
2023-11-07T15:53:37.885Z,9.60
2023-11-07T15:56:09.231Z,9.50
2023-11-07T15:58:37.444Z,9.40
2023-11-07T16:01:06.781Z,9.30
2023-11-07T16:03:35.078Z,9.20
2023-11-07T16:06:04.250Z,9.10
2023-11-07T16:08:35.465Z,9.00
2023-11-07T16:11:04.375Z,8.90
2023-11-07T16:13:34.284Z,8.80
2023-11-07T16:16:03.747Z,8.70
2023-11-07T16:18:32.318Z,8.60
2023-11-07T16:21:01.404Z,8.50
2023-11-07T16:23:29.771Z,8.50
2023-11-07T16:26:01.209Z,8.40
2023-11-07T16:28:30.025Z,8.40
2023-11-07T16:30:59.661Z,8.40
2023-11-07T16:33:27.934Z,8.40
2023-11-07T16:35:56.265Z,8.50
2023-11-07T16:38:25.856Z,8.50
2023-11-07T16:40:54.105Z,8.60
2023-11-07T16:43:22.453Z,8.70
2023-11-07T16:45:50.757Z,8.70
2023-11-07T16:48:20.471Z,8.80
2023-11-07T16:50:48.957Z,8.80
2023-11-07T16:53:17.272Z,8.90
2023-11-07T16:55:45.750Z,8.90
2023-11-07T16:58:14.211Z,9.00
2023-11-07T17:00:42.695Z,9.00
2023-11-07T17:03:11.167Z,9.00
2023-11-07T17:05:42.581Z,9.00
2023-11-07T17:08:13.590Z,9.00
2023-11-07T17:10:42.331Z,9.00
2023-11-07T17:13:11.461Z,9.00
2023-11-07T17:15:42.662Z,9.00
2023-11-07T17:18:11.604Z,9.00
2023-11-07T17:20:46.487Z,9.00
2023-11-07T17:23:15.740Z,8.90
2023-11-07T17:25:44.863Z,8.90
2023-11-07T17:28:13.670Z,8.90
2023-11-07T17:30:41.929Z,8.90
2023-11-07T17:33:10.486Z,8.90
2023-11-07T17:35:43.008Z,8.80
2023-11-07T17:38:11.698Z,8.80
2023-11-07T17:40:40.708Z,8.80
2023-11-07T17:43:09.312Z,8.70
2023-11-07T17:45:37.782Z,8.70
2023-11-07T17:48:07.428Z,8.60
2023-11-07T17:50:35.935Z,8.60
2023-11-07T17:53:08.289Z,8.50
2023-11-07T17:55:37.014Z,8.50
2023-11-07T17:58:05.470Z,8.50
2023-11-07T18:00:34.282Z,8.40
2023-11-07T18:03:03.752Z,8.40
2023-11-07T18:05:32.366Z,8.30
2023-11-07T18:08:02.746Z,8.20
2023-11-07T18:10:33.732Z,8.10
2023-11-07T18:13:02.047Z,8.00
2023-11-07T18:15:30.664Z,8.00
2023-11-07T18:17:59.539Z,7.90
2023-11-07T18:20:28.071Z,7.90
2023-11-07T18:22:56.776Z,7.80
2023-11-07T18:25:25.145Z,7.80
2023-11-07T18:27:54.797Z,7.70
2023-11-07T18:30:23.176Z,7.70
2023-11-07T18:32:51.669Z,7.60
2023-11-07T18:35:21.168Z,7.60
2023-11-07T18:37:49.420Z,7.50
2023-11-07T18:40:17.783Z,7.50
2023-11-07T18:42:46.223Z,7.40
2023-11-07T18:45:16.768Z,7.40
2023-11-07T18:47:47.462Z,7.30
2023-11-07T18:50:18.635Z,7.30
2023-11-07T18:52:47.311Z,7.20
2023-11-07T18:55:15.786Z,7.20
2023-11-07T18:57:44.962Z,7.10
2023-11-07T19:00:18.037Z,7.10
2023-11-07T19:02:46.491Z,7.10
2023-11-07T19:05:14.904Z,7.00
2023-11-07T19:07:43.422Z,7.00
2023-11-07T19:10:12.997Z,6.90
2023-11-07T19:12:41.543Z,6.90
2023-11-07T19:15:13.131Z,6.80
2023-11-07T19:17:43.383Z,6.80
2023-11-07T19:20:13.199Z,6.80
2023-11-07T19:22:41.730Z,6.70
2023-11-07T19:25:10.770Z,6.70
2023-11-07T19:27:39.254Z,6.60
2023-11-07T19:30:12.101Z,6.60
2023-11-07T19:32:42.600Z,6.60
2023-11-07T19:35:13.259Z,6.50
2023-11-07T19:37:41.868Z,6.50
2023-11-07T19:40:11.086Z,6.40
2023-11-07T19:42:41.219Z,6.30
2023-11-07T19:45:10.935Z,6.30
2023-11-07T19:47:39.271Z,6.20
2023-11-07T19:50:11.001Z,6.20
2023-11-07T19:52:39.273Z,6.10
2023-11-07T19:55:08.656Z,6.10
2023-11-07T19:57:37.995Z,6.00
2023-11-07T20:00:09.647Z,6.00
2023-11-07T20:02:38.072Z,6.00
2023-11-07T20:05:10.483Z,6.00
2023-11-07T20:07:46.980Z,6.00
2023-11-07T20:10:22.660Z,6.00
2023-11-07T20:12:50.950Z,5.90
2023-11-07T20:15:19.420Z,5.90
2023-11-07T20:17:47.843Z,5.90
2023-11-07T20:20:17.665Z,5.90
2023-11-07T20:22:46.730Z,5.90
2023-11-07T20:25:16.800Z,5.90
2023-11-07T20:27:45.623Z,5.80
2023-11-07T20:30:16.407Z,5.80
2023-11-07T20:32:45.039Z,5.80
2023-11-07T20:35:14.054Z,5.90
2023-11-07T20:37:45.110Z,5.90
2023-11-07T20:40:13.818Z,6.00
2023-11-07T20:42:42.080Z,6.10
2023-11-07T20:45:13.631Z,6.20
2023-11-07T20:47:42.723Z,6.20
2023-11-07T20:50:12.196Z,6.20
2023-11-07T20:52:40.626Z,6.30
2023-11-07T20:55:10.657Z,6.30
2023-11-07T20:57:39.718Z,6.30
2023-11-07T21:00:11.496Z,6.30
2023-11-07T21:02:40.079Z,6.30
2023-11-07T21:05:09.515Z,6.30
2023-11-07T21:07:39.594Z,6.30
2023-11-07T21:10:12.051Z,6.30
2023-11-07T21:12:40.843Z,6.30
2023-11-07T21:15:11.069Z,6.30
2023-11-07T21:17:40.469Z,6.30
2023-11-07T21:20:11.470Z,6.30
2023-11-07T21:22:40.408Z,6.20
2023-11-07T21:25:11.980Z,6.20
2023-11-07T21:27:41.099Z,6.20
2023-11-07T21:30:12.225Z,6.20
2023-11-07T21:32:43.110Z,6.20
2023-11-07T21:35:14.779Z,6.20
2023-11-07T21:37:43.393Z,6.20
2023-11-07T21:40:14.151Z,6.30
2023-11-07T21:42:43.457Z,6.30
2023-11-07T21:45:12.269Z,6.40
2023-11-07T21:47:42.911Z,6.40
2023-11-07T21:50:13.140Z,6.50
2023-11-07T21:52:41.720Z,6.60
2023-11-07T21:55:12.380Z,6.60
2023-11-07T21:57:41.594Z,6.60
2023-11-07T22:00:15.522Z,6.70
2023-11-07T22:02:44.519Z,6.70
2023-11-07T22:05:14.901Z,6.70
2023-11-07T22:07:43.437Z,6.70
2023-11-07T22:10:14.954Z,6.80
2023-11-07T22:12:44.103Z,6.80
2023-11-07T22:15:13.913Z,6.80
2023-11-07T22:17:42.789Z,6.90
2023-11-07T22:20:15.753Z,6.90
2023-11-07T22:22:44.797Z,6.90
2023-11-07T22:25:15.348Z,7.00
2023-11-07T22:27:44.086Z,6.90
2023-11-07T22:30:13.389Z,6.90
2023-11-07T22:32:42.663Z,7.00
2023-11-07T22:35:11.393Z,7.00
2023-11-07T22:37:39.656Z,7.00
2023-11-07T22:40:10.731Z,7.00
2023-11-07T22:42:41.736Z,7.10
2023-11-07T22:45:12.326Z,7.20
2023-11-07T22:47:40.914Z,7.20
2023-11-07T22:50:10.522Z,7.20
2023-11-07T22:52:39.126Z,7.30
2023-11-07T22:55:10.102Z,7.30
2023-11-07T22:57:40.044Z,7.30
2023-11-07T23:00:12.078Z,7.30
2023-11-07T23:02:40.776Z,7.40
2023-11-07T23:05:11.611Z,7.50
2023-11-07T23:07:40.827Z,7.50
2023-11-07T23:10:10.891Z,7.50
2023-11-07T23:12:40.537Z,7.60
2023-11-07T23:15:12.287Z,7.70
2023-11-07T23:17:40.942Z,7.70
2023-11-07T23:20:11.339Z,7.70
2023-11-07T23:22:40.175Z,7.70
2023-11-07T23:25:11.481Z,7.70
2023-11-07T23:27:41.466Z,7.70
2023-11-07T23:30:11.069Z,7.70
2023-11-07T23:32:40.593Z,7.70
2023-11-07T23:35:10.680Z,7.70
2023-11-07T23:37:39.085Z,7.80
2023-11-07T23:40:11.769Z,7.80
2023-11-07T23:42:43.195Z,7.80
2023-11-07T23:45:12.166Z,7.80
2023-11-07T23:47:41.195Z,7.80
2023-11-07T23:50:11.950Z,7.80
2023-11-07T23:52:40.988Z,7.90
2023-11-07T23:55:10.375Z,7.90
2023-11-07T23:57:38.833Z,7.90
